Cedar Springs, Michigan
Current Conditions -  °F | °C
As of 2:53 PM on Thursday 23 Oct 2014 (Local Time) from KGRR Reporting Station
Few Clouds Few Clouds  
Wind Chill: 57°   Ceiling: Unl
Heat Index: 57°   Visibility: 10mi
Dew Point: 40°   Wind: 8mph
Humidity: 53%   Direction: 200°SSW
Pressure: 30.16"   Gusts: NA
Location:  43.22°N, 85.55°W
Report Text: KGRR 231853Z 20007KT 10SM FEW230 14/04 A3016 RMK AO2 SLP219 T01390044
Loading
Personal Weather Stations






























Interactive Weather Map
Tropical Storm Tracking
New forecast layout! Learn more

10-Day Weather Forecast

Advertisements
Track Severe Weather on mobile